Kimball, Nebraska
Current Conditions -  °F | °C
As of 6:15 PM on Saturday 22 Nov 2014 (Local Time) from KIBM Reporting Station
Overcast Overcast  
Wind Chill: 50°   Ceiling: 9000
Heat Index: 50°   Visibility: 10mi
Dew Point: 24°   Wind: 10mph
Humidity: 36%   Direction: 300°WNW
Pressure: 29.56"   Gusts: NA
Location:  41.24°N, 103.66°W
Report Text: KIBM 230115Z AUTO 30009KT 10SM OVC090 10/M05 A2956 RMK AO2 T01001047
Loading
Personal Weather Stations






























Interactive Weather Map New forecast layout! Learn more

10-Day Weather Forecast

Advertisements
Track Severe Weather on mobile